Tims Ford Observed Data For Previous 48 Hours

Caption
Day and Hour Reservoir Elevation (behind dam)* Tailwater Elevation (below dam)* Average Hourly Discharge*
1/15/2018 1 AM CST 873.50 744.00 240
1/15/2018 2 AM CST 873.50 744.00 240
1/15/2018 3 AM CST 873.51 744.00 240
1/15/2018 4 AM CST 873.53 744.00 240
1/15/2018 5 AM CST 873.53 744.00 240
1/15/2018 6 AM CST 873.54 744.01 240
1/15/2018 7 AM CST 873.54 744.00 240
1/15/2018 8 AM CST 873.56 743.99 240
1/15/2018 9 AM CST 873.57 744.00 240
1/15/2018 10 AM CST 873.57 744.00 240
1/15/2018 11 AM CST 873.57 744.00 240
1/15/2018 12 PM CST 873.58 744.01 240
1/15/2018 1 PM CST 873.58 744.00 240
1/15/2018 2 PM CST 873.58 744.00 240
1/15/2018 3 PM CST 873.59 744.00 240
1/15/2018 4 PM CST 873.58 744.00 240
1/15/2018 5 PM CST 873.58 744.01 240
1/15/2018 6 PM CST 873.59 744.01 240
1/15/2018 7 PM CST 873.58 744.01 240
1/15/2018 8 PM CST 873.59 744.01 240
1/15/2018 9 PM CST 873.58 743.99 240
1/15/2018 10 PM CST 873.58 743.99 240
1/15/2018 11 PM CST 873.58 744.00 240
1/16/2018 12 AM CST 873.60 744.00 240
1/16/2018 1 AM CST 873.57 744.00 240
1/16/2018 2 AM CST 873.57 744.00 240
1/16/2018 3 AM CST 873.58 744.00 240
1/16/2018 4 AM CST 873.59 743.99 240
1/16/2018 5 AM CST 873.58 744.00 240
1/16/2018 6 AM CST 873.59 743.99 240
1/16/2018 7 AM CST 873.58 744.00 240
1/16/2018 8 AM CST 873.58 743.99 240
1/16/2018 9 AM CST 873.59 744.00 240
1/16/2018 10 AM CST 873.58 744.00 240
1/16/2018 11 AM CST 873.58 743.99 240
1/16/2018 12 PM CST 873.59 744.00 240
1/16/2018 1 PM CST 873.59 743.99 240
1/16/2018 2 PM CST 873.60 744.00 240
1/16/2018 3 PM CST 873.59 744.00 240
1/16/2018 4 PM CST 873.60 744.00 240
1/16/2018 5 PM CST 873.58 744.39 240
1/16/2018 6 PM CST 873.58 750.17 3,720
1/16/2018 7 PM CST 873.55 750.33 3,844
1/16/2018 8 PM CST 873.49 750.38 3,845
1/16/2018 9 PM CST 873.50 744.69 423
1/16/2018 10 PM CST 873.52 744.09 240
1/16/2018 11 PM CST 873.51 744.04 240
1/17/2018 12 AM CST 873.51 744.03 240
1/17/2018 1 AM CST 873.52 744.02 240
1/17/2018 2 AM CST 873.51 744.01 240
1/17/2018 3 AM CST 873.52 744.02 240
1/17/2018 4 AM CST 873.53 744.02 240
1/17/2018 5 AM CST 873.51 744.01 240
1/17/2018 6 AM CST 873.52 744.24 240
1/17/2018 7 AM CST 873.49 750.15 3,556
1/17/2018 8 AM CST 873.47 750.21 3,780
1/17/2018 9 AM CST 873.43 750.31 3,794
1/17/2018 10 AM CST 873.43 744.66 376
1/17/2018 11 AM CST 873.43 744.08 240
1/17/2018 12 PM CST 873.44 744.03 240
1/17/2018 1 PM CST 873.43 743.93 164
1/17/2018 2 PM CST 873.44 743.76 85
1/17/2018 3 PM CST 873.44 743.73 85
1/17/2018 4 PM CST 873.46 743.73 85
1/17/2018 5 PM CST 873.46 743.72 85
1/17/2018 6 PM CST 873.46 743.73 85
1/17/2018 7 PM CST 873.47 743.73 85
1/17/2018 8 PM CST 873.47 743.72 85
1/17/2018 9 PM CST 873.47 743.72 85

Elevations are in feet above sea level. Discharges are in cubic feet per second and are reported at the end of the hour.